Flight Track Log - Related Links

Times and Time Zones

All times are in EST time to prevent confusion due to time zone crossing. See the N343CW flight status page for this flight to view local times or setup timezone preferences in your user account.

Time Position Orientation Groundspeed Altitude Reporting Facility
EST Latitude Longitude Course Direction KTS MPH feet Rate Location/Type
Sun 02:05:12 PM 40.9375 -85.1003 119° Southeast 194 223 3,100  Level Chicago Center
Sun 02:06:14 PM 40.9144 -85.0403 117° Southeast 190 219 5,200 1,790 Climbing Chicago Center
Sun 02:07:16 PM 40.8947 -84.9878 116° Southeast 170 196 6,800 1,452 Climbing Chicago Center
Sun 02:08:18 PM 40.8753 -84.9317 115° Southeast 166 191 8,200 1,452 Climbing Chicago Center
Sun 02:09:00 PM 40.8111 -84.7758 118° Southeast  Level Estimated
Sun 02:09:20 PM 40.8464 -84.8569 117° Southeast 185 213 9,800  Level Chicago Center
Sun 02:10:00 PM 40.7825 -84.7065 119° Southeast  Level FlightAware Approximate
Sun 02:10:22 PM 40.8197 -84.7892 117° Southeast 201 231 10,900  Level Chicago Center
Sun 02:11:24 PM 40.7875 -84.7108 118° Southeast 234 269 11,000 48 Climbing Chicago Center
Sun 02:12:26 PM 40.7433 -84.6281 125° Southeast 267 307 11,000  Level Chicago Center
Sun 02:13:03 PM 40.7150 -84.5681 122° Southeast 278 320 11,000  Level Indianapolis Center
Sun 02:14:05 PM 40.6708 -84.4828 124° Southeast 281 323 11,000  Level Indianapolis Center
Sun 02:15:07 PM 40.6286 -84.3972 123° Southeast 281 323 11,000  Level Indianapolis Center
Sun 02:16:09 PM 40.5833 -84.3122 125° Southeast 282 325 11,000  Level Indianapolis Center
Sun 02:17:11 PM 40.5403 -84.2272 124° Southeast 280 322 11,000  Level Indianapolis Center
Sun 02:18:07 PM 40.4939 -84.1375 124° Southeast 279 321 11,000  Level Indianapolis Center
Sun 02:18:14 PM 40.4894 -84.1264 118° Southeast 277 319 11,000  Level Indianapolis Center
Sun 02:19:08 PM 40.4500 -84.0525 125° Southeast 275 316 11,000  Level Indianapolis Center
Sun 02:19:16 PM 40.4467 -84.0419 113° Southeast 278 320 11,000 -1,279 Level Indianapolis Center
Sun 02:20:09 PM 40.4081 -83.9706 125° Southeast 277 319 9,700 -1,452 Descending Indianapolis Center
Sun 02:20:18 PM 40.4036 -83.9589 117° Southeast 278 320 9,500 -1,770 Descending Indianapolis Center
Sun 02:21:10 PM 40.3642 -83.8858 125° Southeast 252 290 7,900 -1,452 Descending Indianapolis Center
Sun 02:21:20 PM 40.3642 -83.8814 90° East 263 303 8,000 -1,180 Climbing Indianapolis Center
Sun 02:22:11 PM 40.3308 -83.8197 125° Southeast 213 245 6,700 -1,258 Descending Indianapolis Center
Sun 02:22:22 PM 40.3286 -83.8144 119° Southeast 244 281 6,700 -689 Level Indianapolis Center
Sun 02:23:12 PM 40.3011 -83.7622 125° Southeast 183 211 6,000 -677 Descending Indianapolis Center
Sun 02:23:24 PM 40.2994 -83.7589 123° Southeast 209 241 6,000 -689 Level Indianapolis Center
Sun 02:24:13 PM 40.2764 -83.7142 124° Southeast 155 178 5,300 -968 Descending Indianapolis Center
Sun 02:24:26 PM 40.2694 -83.7006 124° Southeast 179 206 5,000 -640 Descending Indianapolis Center
Sun 02:25:28 PM 40.2447 -83.6519 124° Southeast 175 201 4,500 -484 Descending Indianapolis Center

Login

Don't have an account? Register now (free) for customized features, flight alerts, and more!